Time;durP1;ratioP1;P1;durP2;ratioP2;P2;SDS_P1;SDS_P2;PMS_P1;PMS_P2;Temp;Humidity;BMP_temperature;BMP_pressure;BME280_temperature;BME280_humidity;BME280_pressure;Samples;Min_cycle;Max_cycle;Signal;HPM_P1;HPM_P2
2021/03/25 00:01:34;;;;;;;0.30;0.20;;;;;;;21.42;49.99;101180.25;5074640;28;20463;-59
2021/03/25 00:04:00;;;;;;;0.88;0.10;;;;;;;21.44;49.70;101169.97;5074472;28;20029;-60
2021/03/25 00:06:27;;;;;;;0.25;0.20;;;;;;;21.46;49.25;101173.38;5073716;28;20031;-61
2021/03/25 00:08:53;;;;;;;0.30;0.20;;;;;;;21.46;49.65;101162.44;5056573;28;20112;-61
2021/03/25 00:11:19;;;;;;;0.40;0.20;;;;;;;21.48;49.49;101165.81;5074386;28;20120;-60
2021/03/25 00:13:45;;;;;;;0.20;0.10;;;;;;;21.47;49.25;101166.88;5074473;28;20418;-61
2021/03/25 00:16:11;;;;;;;0.32;0.10;;;;;;;21.48;49.35;101166.66;5074169;28;20464;-61
2021/03/25 00:18:37;;;;;;;0.30;0.17;;;;;;;21.54;48.97;101170.56;5074305;28;20108;-61
2021/03/25 00:21:05;;;;;;;0.28;0.15;;;;;;;21.61;48.83;101166.06;5073994;28;20064;-61
2021/03/25 00:23:31;;;;;;;0.57;0.32;;;;;;;21.58;49.12;101160.97;5074218;28;20365;-61
2021/03/25 00:25:57;;;;;;;0.28;0.20;;;;;;;21.53;49.19;101171.63;5073931;28;20025;-61
2021/03/25 00:28:22;;;;;;;0.50;0.30;;;;;;;21.53;48.76;101166.16;5074136;28;20028;-59
2021/03/25 00:30:47;;;;;;;0.50;0.35;;;;;;;21.44;48.18;101159.03;5074114;28;20034;-60
2021/03/25 00:33:16;;;;;;;0.32;0.20;;;;;;;21.31;47.54;101154.16;5073798;28;20521;-61
2021/03/25 00:35:42;;;;;;;0.55;0.30;;;;;;;21.29;48.19;101164.44;5073984;28;20046;-61
2021/03/25 00:38:08;;;;;;;0.50;0.20;;;;;;;21.31;47.37;101167.84;5073622;28;20043;-59
2021/03/25 00:40:34;;;;;;;0.73;0.40;;;;;;;21.35;47.13;101165.63;5073741;28;20028;-60
2021/03/25 00:43:00;;;;;;;0.30;0.25;;;;;;;21.30;48.53;101153.31;5088224;28;20474;-60
2021/03/25 00:45:35;;;;;;;0.13;0.10;;;;;;;21.31;47.32;101149.56;5093509;28;20367;-61
2021/03/25 00:48:00;;;;;;;0.73;0.28;;;;;;;21.30;47.74;101147.84;5093735;28;20412;-60
2021/03/25 00:50:30;;;;;;;0.38;0.28;;;;;;;21.30;47.55;101152.47;5093989;28;20103;-59
2021/03/25 00:52:55;;;;;;;0.77;0.30;;;;;;;21.30;47.63;101156.06;5093699;28;20028;-60
2021/03/25 00:55:22;;;;;;;0.10;0.10;;;;;;;21.25;48.71;101149.44;5093550;28;20048;-61
2021/03/25 00:57:47;;;;;;;0.45;0.30;;;;;;;21.20;49.17;101152.69;5075863;28;20046;-60
2021/03/25 01:00:26;;;;;;;0.40;0.30;;;;;;;21.18;49.59;101154.78;5093142;28;20024;-59
2021/03/25 01:02:52;;;;;;;0.95;0.40;;;;;;;21.19;48.74;101161.94;5093651;28;20065;-60
2021/03/25 01:05:19;;;;;;;0.60;0.28;;;;;;;21.21;48.69;101159.03;5093159;28;20039;-61
2021/03/25 01:07:44;;;;;;;0.30;0.20;;;;;;;21.22;48.59;101161.56;5093528;28;20431;-61
2021/03/25 01:10:14;;;;;;;0.43;0.30;;;;;;;21.24;48.87;101159.53;5093260;28;20020;-60
2021/03/25 01:12:40;;;;;;;0.17;0.17;;;;;;;21.24;48.51;101159.53;5075251;28;20032;-60
2021/03/25 01:15:06;;;;;;;0.20;0.20;;;;;;;21.26;48.32;101157.47;5093228;28;20058;-61
2021/03/25 01:17:32;;;;;;;0.40;0.20;;;;;;;21.29;47.90;101162.56;5093081;28;20523;-60
2021/03/25 01:19:57;;;;;;;0.22;0.22;;;;;;;21.29;48.37;101157.09;5092386;28;20027;-60
2021/03/25 01:22:22;;;;;;;0.35;0.22;;;;;;;21.29;48.30;101157.09;5093111;28;20055;-60
2021/03/25 01:24:47;;;;;;;0.22;0.10;;;;;;;21.39;46.55;101162.31;5093120;28;20028;-63
2021/03/25 01:27:13;;;;;;;0.73;0.50;;;;;;;21.37;47.59;101153.47;5092980;28;20051;-60
2021/03/25 01:29:38;;;;;;;0.20;0.17;;;;;;;21.41;47.60;101151.19;5093255;28;20032;-59
2021/03/25 01:32:04;;;;;;;0.30;0.20;;;;;;;21.46;48.01;101156.97;5092856;28;20119;-60
2021/03/25 01:34:29;;;;;;;0.60;0.25;;;;;;;21.39;47.42;101150.53;5074784;28;20024;-60
2021/03/25 01:36:54;;;;;;;0.43;0.20;;;;;;;21.32;46.89;101151.25;5092709;28;20026;-60
2021/03/25 01:39:20;;;;;;;0.13;0.13;;;;;;;21.22;46.28;101150.63;5092962;28;20020;-60
2021/03/25 01:41:45;;;;;;;0.10;0.10;;;;;;;21.14;46.17;101161.63;5093156;28;20065;-60
2021/03/25 01:44:39;;;;;;;0.47;0.30;;;;;;;21.08;46.30;101159.63;5092493;28;20024;-60
2021/03/25 01:47:08;;;;;;;0.77;0.30;;;;;;;21.02;46.49;101154.91;5074503;28;20144;-59
2021/03/25 01:49:33;;;;;;;0.70;0.30;;;;;;;21.02;46.06;101161.22;5092857;28;20024;-60
2021/03/25 01:52:20;;;;;;;0.95;0.28;;;;;;;21.00;47.42;101152.34;5092674;28;20020;-60
2021/03/25 01:54:54;;;;;;;0.65;0.20;;;;;;;21.04;47.41;101152.81;5092737;28;20040;-60
2021/03/25 01:57:41;;;;;;;0.30;0.20;;;;;;;21.09;47.54;101149.53;5092725;28;20030;-60
2021/03/25 02:00:14;;;;;;;0.40;0.40;;;;;;;21.09;48.10;101155.84;5092382;28;20046;-60
2021/03/25 02:02:50;;;;;;;0.32;0.30;;;;;;;21.11;48.76;101153.78;5092778;28;20020;-59
2021/03/25 02:05:29;;;;;;;0.30;0.20;;;;;;;21.12;48.56;101152.75;5092467;28;20036;-59
2021/03/25 02:08:15;;;;;;;0.20;0.17;;;;;;;21.13;49.90;101150.88;5092598;28;20032;-59
2021/03/25 02:10:51;;;;;;;0.30;0.20;;;;;;;21.12;50.24;101157.38;5092684;28;20028;-60
2021/03/25 02:13:43;;;;;;;0.32;0.20;;;;;;;21.05;49.99;101154.53;5092510;28;20475;-59
2021/03/25 02:16:14;;;;;;;0.22;0.20;;;;;;;21.06;51.16;101156.22;5092380;28;20118;-59
2021/03/25 02:19:21;;;;;;;0.30;0.20;;;;;;;21.05;50.59;101154.53;5092586;28;20024;-60
2021/03/25 02:22:26;;;;;;;0.52;0.20;;;;;;;21.05;50.67;101159.16;5010162;28;20030;-60
2021/03/25 02:25:08;;;;;;;0.10;0.10;;;;;;;21.07;50.91;101157.91;5010044;28;20045;-60
2021/03/25 02:27:39;;;;;;;0.30;0.20;;;;;;;21.05;50.87;101154.53;5010399;28;20029;-60
2021/03/25 02:30:07;;;;;;;0.45;0.20;;;;;;;21.11;50.13;101159.25;5011051;28;20501;-61
2021/03/25 02:32:51;;;;;;;0.52;0.20;;;;;;;21.12;49.41;101158.22;5014077;28;20065;-59
2021/03/25 02:35:25;;;;;;;1.05;0.40;;;;;;;21.09;50.13;101147.66;5014004;28;20480;-60
2021/03/25 02:38:14;;;;;;;0.50;0.10;;;;;;;21.13;50.04;101150.88;5014068;28;20034;-60
2021/03/25 02:40:45;;;;;;;0.73;0.25;;;;;;;21.17;49.15;101152.22;5013208;28;20539;-60
2021/03/25 02:43:16;;;;;;;0.80;0.20;;;;;;;21.16;49.48;101143.13;5013691;28;20041;-61
2021/03/25 02:45:48;;;;;;;0.90;0.60;;;;;;;21.24;48.27;101153.19;5013905;28;20033;-60
2021/03/25 02:48:18;;;;;;;0.30;0.20;;;;;;;21.23;48.81;101152.34;5013550;28;20049;-59
2021/03/25 02:50:52;;;;;;;0.40;0.15;;;;;;;21.27;49.10;101147.38;5013855;28;20054;-59
2021/03/25 02:53:36;;;;;;;1.52;0.20;;;;;;;21.31;48.68;101149.56;5013588;28;20103;-59
2021/03/25 02:56:25;;;;;;;0.32;0.22;;;;;;;21.24;49.02;101143.13;5013340;28;20543;-60
2021/03/25 02:59:05;;;;;;;0.40;0.28;;;;;;;21.11;48.43;101148.31;5024414;28;20476;-60
2021/03/25 03:01:35;;;;;;;0.50;0.30;;;;;;;21.04;47.95;101147.34;5033261;28;20230;-61
2021/03/25 03:04:05;;;;;;;0.40;0.20;;;;;;;20.97;47.64;101146.38;5033029;28;20033;-59
2021/03/25 03:06:37;;;;;;;0.57;0.20;;;;;;;20.88;47.66;101137.38;5032896;28;20514;-60
2021/03/25 03:09:08;;;;;;;0.30;0.30;;;;;;;20.89;47.15;101143.69;5016569;28;20520;-61
2021/03/25 03:11:37;;;;;;;0.43;0.10;;;;;;;20.91;47.76;101147.94;5033390;28;20513;-60
2021/03/25 03:14:11;;;;;;;0.70;0.20;;;;;;;20.87;48.20;101140.31;5032707;28;20033;-59
2021/03/25 03:16:50;;;;;;;0.40;0.20;;;;;;;20.87;47.67;101151.22;5032882;28;20030;-59
2021/03/25 03:19:37;;;;;;;2.05;0.20;;;;;;;20.92;47.61;101154.25;5032928;28;20072;-60
2021/03/25 03:22:07;;;;;;;0.30;0.20;;;;;;;20.92;47.83;101157.84;5032722;28;20018;-60
2021/03/25 03:24:33;;;;;;;1.05;0.20;;;;;;;20.94;47.82;101160.41;5032914;28;20487;-60
2021/03/25 03:27:20;;;;;;;0.75;0.10;;;;;;;20.95;48.02;101152.00;5032765;28;20236;-60
2021/03/25 03:29:47;;;;;;;0.40;0.20;;;;;;;20.97;48.11;101158.16;5032943;28;20037;-59
2021/03/25 03:32:30;;;;;;;0.30;0.20;;;;;;;20.92;48.29;101155.13;5032545;28;20033;-59
2021/03/25 03:34:59;;;;;;;0.52;0.10;;;;;;;20.97;48.42;101162.75;5037283;28;20044;-61
2021/03/25 03:37:47;;;;;;;0.65;0.20;;;;;;;20.96;48.78;101163.78;5095136;28;20103;-59
2021/03/25 03:40:18;;;;;;;0.20;0.20;;;;;;;20.98;48.18;101164.47;5095261;28;20486;-59
2021/03/25 03:42:45;;;;;;;0.20;0.10;;;;;;;20.93;48.47;101173.22;5094189;28;20032;-59
2021/03/25 03:45:15;;;;;;;0.20;0.20;;;;;;;20.90;48.11;101168.13;5094704;28;20467;-59
2021/03/25 03:47:43;;;;;;;0.80;0.20;;;;;;;20.83;48.27;101172.63;5095173;28;20031;-59
2021/03/25 03:50:29;;;;;;;0.30;0.20;;;;;;;20.82;48.73;101170.03;5094802;28;20042;-59
2021/03/25 03:52:55;;;;;;;0.10;0.05;;;;;;;20.88;48.75;101181.09;5095000;28;20028;-59
2021/03/25 03:55:22;;;;;;;0.38;0.10;;;;;;;20.91;48.31;101177.16;5076577;28;20123;-59
2021/03/25 03:57:47;;;;;;;0.20;0.20;;;;;;;20.92;48.78;101189.78;5094948;28;20103;-59
2021/03/25 04:00:33;;;;;;;0.20;0.10;;;;;;;20.95;48.31;101173.03;5094511;28;20048;-60
2021/03/25 04:03:16;;;;;;;0.73;0.20;;;;;;;20.95;48.87;101187.53;5094665;28;20273;-60
2021/03/25 04:05:50;;;;;;;0.75;0.15;;;;;;;20.98;49.25;101178.13;5094783;28;20056;-60
2021/03/25 04:08:27;;;;;;;;;;;;;;;20.99;49.82;101188.03;5094910;28;20093;-59
2021/03/25 04:11:07;;;;;;;0.40;0.10;;;;;;;21.05;50.10;101186.47;5094655;28;19980;-59
2021/03/25 04:13:50;;;;;;;0.47;0.20;;;;;;;21.08;49.53;101176.03;5094681;28;20071;-59
2021/03/25 04:16:22;;;;;;;0.28;0.13;;;;;;;21.12;50.52;101177.34;5094315;28;20463;-60
2021/03/25 04:19:11;;;;;;;0.73;0.30;;;;;;;21.17;50.86;101166.75;5094879;28;20383;-59
2021/03/25 04:21:44;;;;;;;0.20;0.05;;;;;;;21.23;50.60;101176.94;5093892;28;20036;-60
2021/03/25 04:24:17;;;;;;;0.35;0.10;;;;;;;21.15;50.83;101182.44;5094236;28;20035;-59
2021/03/25 04:26:46;;;;;;;0.40;0.10;;;;;;;20.98;51.08;101180.88;5094350;28;20024;-59
2021/03/25 04:29:17;;;;;;;1.00;0.20;;;;;;;20.90;50.52;101184.50;5094474;28;20020;-59
2021/03/25 04:31:42;;;;;;;0.20;0.10;;;;;;;20.83;50.41;101171.75;5094282;28;20052;-59
2021/03/25 04:34:09;;;;;;;0.30;0.17;;;;;;;20.79;50.89;101175.84;5094002;28;20524;-59
2021/03/25 04:36:42;;;;;;;0.20;0.10;;;;;;;20.77;50.31;101183.38;5094085;28;20459;-60
2021/03/25 04:39:10;;;;;;;0.50;0.25;;;;;;;20.75;49.75;101179.97;5093816;28;20118;-59
2021/03/25 04:41:38;;;;;;;0.65;0.20;;;;;;;20.77;50.24;101177.91;5093984;28;20034;-59
2021/03/25 04:44:07;;;;;;;0.45;0.10;;;;;;;20.79;49.54;101184.06;5093619;28;20025;-59
2021/03/25 04:46:56;;;;;;;0.20;0.10;;;;;;;20.76;49.40;101182.53;5093767;28;20474;-59
2021/03/25 04:49:47;;;;;;;0.47;0.13;;;;;;;20.79;49.27;101175.84;5093869;28;20528;-59
2021/03/25 04:52:22;;;;;;;0.20;0.20;;;;;;;20.76;48.83;101188.00;5073367;28;20712;-60
2021/03/25 04:54:48;;;;;;;0.30;0.05;;;;;;;20.82;49.14;101186.41;5073417;28;20135;-58
2021/03/25 04:57:31;;;;;;;0.20;0.10;;;;;;;20.87;49.12;101182.13;5078796;28;20415;-59
2021/03/25 05:00:00;;;;;;;0.25;0.10;;;;;;;20.86;49.17;101182.31;5093192;28;20019;-60
2021/03/25 05:02:28;;;;;;;1.00;0.38;;;;;;;20.88;50.04;101188.47;5093617;28;20035;-59
2021/03/25 05:04:55;;;;;;;0.03;0.03;;;;;;;20.92;49.52;101187.06;5093308;28;20042;-59
2021/03/25 05:07:30;;;;;;;0.77;0.20;;;;;;;20.92;49.26;101178.84;5093298;28;20036;-59
2021/03/25 05:09:56;;;;;;;0.28;0.10;;;;;;;20.99;49.13;101171.63;5093504;28;20020;-59
2021/03/25 05:12:22;;;;;;;0.80;0.03;;;;;;;21.03;48.24;101167.53;5093284;28;20047;-59
2021/03/25 05:14:51;;;;;;;0.30;0.13;;;;;;;21.14;48.13;101169.81;5093097;28;20475;-59
2021/03/25 05:17:35;;;;;;;0.35;0.10;;;;;;;21.17;49.08;101174.09;5093322;28;20110;-59
2021/03/25 05:20:14;;;;;;;0.20;0.10;;;;;;;21.20;48.70;101169.13;5093150;28;20032;-59
2021/03/25 05:22:45;;;;;;;0.60;0.10;;;;;;;21.24;48.67;101169.59;5093753;28;20085;-59
2021/03/25 05:25:29;;;;;;;0.55;0.13;;;;;;;21.24;48.54;101162.28;5093000;28;20428;-59
2021/03/25 05:28:03;;;;;;;0.22;0.10;;;;;;;21.28;48.37;101171.81;5093209;28;20019;-59
2021/03/25 05:30:33;;;;;;;0.73;0.28;;;;;;;21.30;48.09;101163.41;5093138;28;20111;-58
2021/03/25 05:33:02;;;;;;;0.10;0.10;;;;;;;21.33;47.73;101184.91;5093058;28;20467;-59
2021/03/25 05:35:32;;;;;;;0.50;0.13;;;;;;;21.34;47.41;101174.88;5092998;28;20032;-60
2021/03/25 05:37:58;;;;;;;0.43;0.10;;;;;;;21.41;47.73;101186.75;5092955;28;20035;-59
2021/03/25 05:40:34;;;;;;;0.05;0.00;;;;;;;21.43;47.07;101184.69;5092892;28;20036;-59
2021/03/25 05:43:23;;;;;;;0.10;0.00;;;;;;;21.44;47.40;101197.31;5092705;28;20023;-60
2021/03/25 05:46:06;;;;;;;0.20;0.10;;;;;;;21.50;47.26;101188.38;5092984;28;20066;-59
2021/03/25 05:48:50;;;;;;;0.28;0.08;;;;;;;21.52;46.85;101189.06;5092777;28;20028;-59
2021/03/25 05:51:20;;;;;;;0.20;0.10;;;;;;;21.53;47.34;101196.22;5092700;28;20020;-59
2021/03/25 05:53:55;;;;;;;0.32;0.10;;;;;;;21.49;47.78;101194.88;5074523;28;20072;-60
2021/03/25 05:56:24;;;;;;;0.43;0.08;;;;;;;21.47;47.65;101191.47;5092807;28;20462;-59
2021/03/25 05:58:57;;;;;;;0.40;0.10;;;;;;;21.33;47.29;101190.38;5092757;28;20024;-59
2021/03/25 06:02:00;;;;;;;0.43;0.10;;;;;;;21.30;46.94;101197.06;5092625;28;20016;-60
2021/03/25 06:04:31;;;;;;;0.22;0.10;;;;;;;21.27;46.51;101186.50;5092672;28;20013;-60
2021/03/25 06:06:59;;;;;;;1.02;0.30;;;;;;;21.27;47.38;101196.59;5092519;28;20016;-59
2021/03/25 06:09:48;;;;;;;3.42;0.50;;;;;;;21.26;46.75;101187.53;5092650;28;20469;-60
2021/03/25 06:12:41;;;;;;;2.33;0.28;;;;;;;21.34;47.08;101185.78;5091611;28;20071;-61
2021/03/25 06:15:52;;;;;;;0.32;0.10;;;;;;;21.35;47.77;101192.97;5092428;28;20066;-60
2021/03/25 06:18:45;;;;;;;0.35;0.10;;;;;;;21.36;48.19;101211.06;5092344;28;20467;-60
2021/03/25 06:21:43;;;;;;;0.28;0.10;;;;;;;21.38;48.85;101192.59;5092404;28;20024;-59
2021/03/25 06:24:46;;;;;;;0.43;0.13;;;;;;;21.37;49.11;101199.94;5092032;28;20038;-59
2021/03/25 06:27:14;;;;;;;0.10;0.10;;;;;;;21.37;49.40;101201.84;5092302;28;20035;-59
2021/03/25 06:29:48;;;;;;;1.00;0.20;;;;;;;21.42;48.50;101210.34;5092842;28;20440;-59
2021/03/25 06:32:25;;;;;;;0.88;0.20;;;;;;;21.38;48.26;101206.28;5092068;28;20028;-59
2021/03/25 06:35:00;;;;;;;0.10;0.10;;;;;;;21.37;49.72;101205.41;5092546;28;20394;-59
2021/03/25 06:37:41;;;;;;;0.38;0.10;;;;;;;21.43;48.26;101190.16;5092417;28;20047;-58
2021/03/25 06:40:15;;;;;;;0.15;0.10;;;;;;;21.46;48.79;101208.94;5074138;28;20035;-59
2021/03/25 06:42:54;;;;;;;;;;;;;;;21.46;48.44;101197.97;5092668;28;20027;-59
2021/03/25 06:45:26;;;;;;;0.15;0.10;;;;;;;21.43;48.91;101207.41;5092210;28;19959;-60
2021/03/25 06:48:12;;;;;;;1.10;0.30;;;;;;;21.44;48.99;101200.91;5092630;28;20347;-59
2021/03/25 06:50:49;;;;;;;0.22;0.10;;;;;;;21.43;48.72;101201.94;5092260;28;20031;-59
2021/03/25 06:53:32;;;;;;;0.08;0.05;;;;;;;21.38;48.67;101198.91;5092064;28;20074;-60
2021/03/25 06:56:04;;;;;;;0.13;0.10;;;;;;;21.43;48.54;101203.84;5092110;28;20028;-60
2021/03/25 06:58:38;;;;;;;0.25;0.10;;;;;;;21.45;48.67;101199.03;5092089;28;20106;-59
2021/03/25 07:01:10;;;;;;;0.05;0.00;;;;;;;21.48;47.46;101193.19;5091720;28;20046;-59
2021/03/25 07:03:36;;;;;;;0.77;0.10;;;;;;;21.44;48.47;101186.38;5092181;28;20532;-60
2021/03/25 07:06:03;;;;;;;0.15;0.10;;;;;;;21.50;47.69;101191.09;5080430;28;20032;-58
2021/03/25 07:08:31;;;;;;;0.75;0.20;;;;;;;21.48;47.92;101193.19;5091875;28;20024;-59
2021/03/25 07:10:59;;;;;;;0.52;0.10;;;;;;;21.53;47.23;101202.56;5090404;28;20047;-59
2021/03/25 07:13:41;;;;;;;0.57;0.10;;;;;;;21.57;46.65;101192.94;5090214;28;20090;-59
2021/03/25 07:16:09;;;;;;;1.27;0.20;;;;;;;21.53;47.24;101212.66;5091079;28;20351;-59
2021/03/25 07:18:45;;;;;;;1.38;0.10;;;;;;;21.55;47.32;101194.16;5095013;28;20041;-59
2021/03/25 07:21:27;;;;;;;0.40;0.20;;;;;;;21.56;48.51;101196.72;5094499;28;20441;-61
2021/03/25 07:23:59;;;;;;;2.05;0.65;;;;;;;21.75;46.90;101206.28;5090643;28;20098;-59
2021/03/25 07:26:35;;;;;;;1.50;0.60;;;;;;;21.80;46.96;101208.47;5093798;28;20024;-68
2021/03/25 07:29:16;;;;;;;2.70;1.30;;;;;;;21.98;47.85;101202.63;5090510;28;20028;-62
2021/03/25 07:31:49;;;;;;;4.00;2.00;;;;;;;21.75;48.92;101203.56;5089143;28;20063;-61
2021/03/25 07:34:29;;;;;;;5.38;2.60;;;;;;;21.74;47.97;101179.13;5094531;28;20020;-61
2021/03/25 07:36:57;;;;;;;5.38;2.45;;;;;;;21.65;48.07;101197.47;5076716;28;20048;-61
2021/03/25 07:39:26;;;;;;;6.15;2.63;;;;;;;21.63;47.50;101194.06;5071872;28;20012;-63
2021/03/25 07:41:56;;;;;;;6.13;2.00;;;;;;;21.63;46.96;101207.75;5090514;28;20028;-60
2021/03/25 07:44:24;;;;;;;7.40;2.90;;;;;;;21.59;46.72;101201.81;5092595;28;20413;-60
2021/03/25 07:46:52;;;;;;;6.32;2.33;;;;;;;21.62;46.71;101206.06;5095608;28;20028;-60
2021/03/25 07:49:21;;;;;;;7.07;2.83;;;;;;;21.62;46.65;101200.59;5094714;28;20466;-62
2021/03/25 07:52:05;;;;;;;5.35;2.10;;;;;;;21.65;46.52;101213.91;5086361;28;20074;-62
2021/03/25 07:54:39;;;;;;;5.65;2.13;;;;;;;21.59;46.14;101217.38;5086220;28;20123;-61
2021/03/25 07:57:11;;;;;;;5.97;2.08;;;;;;;21.56;46.19;101213.13;5081995;28;20070;-60
2021/03/25 07:59:41;;;;;;;5.22;1.98;;;;;;;21.59;46.55;101217.38;5074448;28;20019;-61
2021/03/25 08:02:28;;;;;;;3.40;1.60;;;;;;;21.58;46.16;101221.16;5091090;28;20038;-60
2021/03/25 08:05:14;;;;;;;7.32;1.95;;;;;;;21.58;46.56;101229.34;5068293;28;20016;-59
2021/03/25 08:07:41;;;;;;;1.92;1.10;;;;;;;21.65;46.38;101238.50;5083347;28;20180;-60
2021/03/25 08:10:08;;;;;;;3.10;1.25;;;;;;;21.60;46.94;101216.34;5077788;28;20044;-61
2021/03/25 08:12:36;;;;;;;3.17;1.23;;;;;;;21.67;47.20;101225.53;5092096;28;20032;-59
2021/03/25 08:15:04;;;;;;;1.50;0.65;;;;;;;21.72;47.52;101223.09;5092176;28;20040;-60
2021/03/25 08:17:39;;;;;;;1.85;0.80;;;;;;;21.73;47.56;101238.47;5085586;28;20082;-59
2021/03/25 08:20:43;;;;;;;3.10;1.20;;;;;;;21.76;48.12;101224.41;5090448;28;20050;-59
2021/03/25 08:23:23;;;;;;;1.50;1.00;;;;;;;21.78;48.57;101232.44;5015921;28;20125;-59
2021/03/25 08:26:31;;;;;;;2.15;1.00;;;;;;;21.83;47.70;101229.97;5027520;28;20045;-59
2021/03/25 08:29:18;;;;;;;1.60;0.80;;;;;;;21.82;47.61;101234.59;5015192;28;20033;-59
2021/03/25 08:32:13;;;;;;;1.17;0.73;;;;;;;21.78;48.24;101227.81;5020772;28;20042;-59
2021/03/25 08:35:00;;;;;;;1.37;0.77;;;;;;;21.82;48.16;101228.28;5016046;28;20513;-59
2021/03/25 08:38:02;;;;;;;0.80;0.63;;;;;;;21.78;48.00;101227.81;5018766;28;20068;-59
2021/03/25 08:40:38;;;;;;;0.95;0.40;;;;;;;21.81;47.61;101238.38;5032170;28;20052;-61
2021/03/25 08:43:06;;;;;;;1.00;0.47;;;;;;;21.82;47.43;101234.59;5026064;28;20560;-59
2021/03/25 08:46:00;;;;;;;0.88;0.47;;;;;;;21.87;47.04;101229.44;5022106;28;20030;-58
2021/03/25 08:48:32;;;;;;;1.00;0.30;;;;;;;21.92;46.65;101227.00;5023710;28;20075;-58
2021/03/25 08:51:00;;;;;;;0.75;0.38;;;;;;;21.91;46.81;101235.41;5009708;28;20104;-59
2021/03/25 08:53:49;;;;;;;0.68;0.40;;;;;;;22.00;46.49;101247.09;5028422;28;20041;-61
2021/03/25 08:56:34;;;;;;;0.63;0.47;;;;;;;21.93;46.72;101236.91;5024637;28;20620;-61
2021/03/25 08:59:02;;;;;;;1.30;0.50;;;;;;;21.85;47.19;101234.25;5079484;28;20031;-61
2021/03/25 09:01:38;;;;;;;0.75;0.32;;;;;;;21.75;48.30;101228.19;5083760;28;20050;-62
2021/03/25 09:04:09;;;;;;;1.17;0.25;;;;;;;21.71;47.22;101236.94;5091149;28;20020;-66
2021/03/25 09:06:38;;;;;;;1.60;0.52;;;;;;;21.71;47.59;101236.94;5062327;28;20026;-68
2021/03/25 09:09:33;;;;;;;1.08;0.32;;;;;;;21.74;47.15;101236.59;5088499;28;20693;-66
2021/03/25 09:11:58;;;;;;;1.58;0.40;;;;;;;21.75;46.83;101244.59;5055796;28;20067;-66
2021/03/25 09:14:26;;;;;;;0.60;0.30;;;;;;;21.83;46.26;101240.94;5091795;28;20047;-68
2021/03/25 09:16:59;;;;;;;0.75;0.30;;;;;;;21.84;46.20;101239.94;5092187;28;20023;-62
2021/03/25 09:19:38;;;;;;;1.08;0.43;;;;;;;21.78;46.69;101246.97;5091891;28;20024;-62
2021/03/25 09:22:04;;;;;;;1.25;0.60;;;;;;;21.83;46.21;101252.72;5091684;28;20398;-64
2021/03/25 09:24:29;;;;;;;1.38;0.50;;;;;;;21.81;46.60;101254.81;5073587;28;20406;-62
2021/03/25 09:26:58;;;;;;;0.17;0.15;;;;;;;21.82;46.54;101266.59;5092609;28;20042;-61
2021/03/25 09:29:26;;;;;;;0.65;0.40;;;;;;;21.83;45.85;101252.72;5091251;28;20491;-59
2021/03/25 09:31:54;;;;;;;0.40;0.40;;;;;;;21.88;45.67;101249.47;5092591;28;20030;-59
2021/03/25 09:34:22;;;;;;;0.98;0.30;;;;;;;21.83;45.88;101247.25;5091364;28;20031;-61
2021/03/25 09:36:52;;;;;;;0.50;0.20;;;;;;;21.89;45.96;101246.53;5089708;28;20062;-59
2021/03/25 09:39:21;;;;;;;0.40;0.30;;;;;;;21.90;45.92;101248.22;5091314;28;20483;-59
2021/03/25 09:41:47;;;;;;;0.35;0.20;;;;;;;21.97;45.47;101256.53;5090822;28;20065;-61
2021/03/25 09:44:14;;;;;;;0.40;0.25;;;;;;;22.00;45.67;101258.91;5090289;28;20024;-59
2021/03/25 09:46:54;;;;;;;0.32;0.20;;;;;;;21.98;45.36;101255.50;5090249;28;20510;-60
2021/03/25 09:49:20;;;;;;;0.28;0.20;;;;;;;22.05;45.08;101255.66;5090262;28;20043;-62
2021/03/25 09:51:48;;;;;;;1.48;0.40;;;;;;;21.97;45.39;101250.22;5076049;28;20024;-60
2021/03/25 09:54:24;;;;;;;0.30;0.20;;;;;;;21.98;46.38;101254.66;5073073;28;20036;-61
2021/03/25 09:57:18;;;;;;;1.10;0.20;;;;;;;21.90;46.72;101263.81;5092758;28;20107;-60
2021/03/25 10:00:06;;;;;;;0.57;0.40;;;;;;;21.81;46.23;101260.28;5090754;28;20038;-62
2021/03/25 10:02:37;;;;;;;0.30;0.20;;;;;;;21.83;46.29;101247.25;5075537;28;20022;-61
2021/03/25 10:05:21;;;;;;;0.28;0.20;;;;;;;21.79;46.26;101256.88;5091911;28;20395;-60
2021/03/25 10:07:48;;;;;;;0.97;0.20;;;;;;;21.80;46.57;101258.56;5071808;28;20064;-60
2021/03/25 10:10:41;;;;;;;1.58;0.20;;;;;;;21.80;47.33;101252.25;5090259;28;20036;-60
2021/03/25 10:13:13;;;;;;;0.40;0.30;;;;;;;21.89;46.66;101262.09;5066763;28;20025;-60
2021/03/25 10:15:57;;;;;;;0.63;0.10;;;;;;;21.88;47.78;101261.25;5083624;28;20111;-60
2021/03/25 10:18:26;;;;;;;0.57;0.25;;;;;;;21.90;47.43;101261.06;5052212;28;20379;-60
2021/03/25 10:20:58;;;;;;;0.30;0.10;;;;;;;21.89;48.30;101262.97;5062690;28;20116;-62
2021/03/25 10:23:32;;;;;;;0.50;0.22;;;;;;;21.91;48.47;101255.41;5088680;28;20698;-60
2021/03/25 10:26:09;;;;;;;0.50;0.20;;;;;;;21.93;48.01;101247.84;5076995;28;20043;-60
2021/03/25 10:28:45;;;;;;;0.63;0.10;;;;;;;21.95;47.99;101249.56;5081259;28;20028;-61
2021/03/25 10:31:27;;;;;;;0.20;0.10;;;;;;;21.96;47.85;101240.31;5082016;28;20016;-60
2021/03/25 10:33:56;;;;;;;0.28;0.10;;;;;;;21.95;48.03;101230.41;5089069;28;20033;-60
2021/03/25 10:36:32;;;;;;;0.30;0.20;;;;;;;22.02;47.67;101234.97;5089926;28;20482;-60
2021/03/25 10:39:01;;;;;;;0.35;0.20;;;;;;;22.02;47.72;101234.97;5085801;28;20038;-60
2021/03/25 10:41:34;;;;;;;0.40;0.15;;;;;;;22.01;47.57;101235.16;5088623;28;20020;-61
2021/03/25 10:44:34;;;;;;;0.30;0.10;;;;;;;22.09;47.41;101235.09;5081899;28;20031;-62
2021/03/25 10:47:21;;;;;;;0.43;0.10;;;;;;;22.11;46.58;101236.59;5087712;28;20024;-61
2021/03/25 10:49:51;;;;;;;0.43;0.13;;;;;;;22.01;47.71;101237.88;5090865;28;20517;-62
2021/03/25 10:52:23;;;;;;;0.98;0.43;;;;;;;22.04;47.57;101242.97;5091868;28;20142;-60
2021/03/25 10:54:48;;;;;;;1.38;0.57;;;;;;;21.93;47.53;101242.38;5093767;28;20052;-60
2021/03/25 10:57:24;;;;;;;3.63;0.80;;;;;;;21.81;48.32;101238.38;5093411;28;20016;-61
2021/03/25 11:00:02;;;;;;;3.42;1.17;;;;;;;21.88;47.06;101244.84;5095053;28;20024;-61
2021/03/25 11:02:30;;;;;;;3.17;1.25;;;;;;;21.85;47.26;101234.25;5095958;28;20389;-61
2021/03/25 11:05:18;;;;;;;3.15;1.10;;;;;;;21.86;46.74;101241.44;5095250;28;20024;-63
2021/03/25 11:07:49;;;;;;;4.47;1.80;;;;;;;21.88;46.09;101225.69;5093908;28;20133;-62
2021/03/25 11:10:24;;;;;;;4.10;1.75;;;;;;;21.85;46.15;101231.53;5094190;28;20066;-62
2021/03/25 11:13:25;;;;;;;5.20;2.00;;;;;;;21.91;46.36;101229.91;5076503;28;20028;-63
2021/03/25 11:16:15;;;;;;;4.10;1.75;;;;;;;21.95;46.43;101233.13;5028683;28;20033;-63
2021/03/25 11:18:53;;;;;;;4.18;1.75;;;;;;;21.88;46.18;101228.41;4974134;28;20042;-63
2021/03/25 11:21:29;;;;;;;5.07;1.75;;;;;;;21.93;45.80;101231.44;4984939;28;20528;-62
2021/03/25 11:24:03;;;;;;;4.35;1.63;;;;;;;21.95;46.22;101233.13;4981290;28;20046;-63
2021/03/25 11:26:28;;;;;;;4.68;1.48;;;;;;;21.96;45.78;101237.56;4984798;28;20026;-65
2021/03/25 11:28:54;;;;;;;5.28;2.15;;;;;;;21.96;46.15;101230.22;4984993;28;20542;-63
2021/03/25 11:31:24;;;;;;;3.67;1.48;;;;;;;21.96;45.84;101227.47;4982894;28;20066;-64
2021/03/25 11:33:51;;;;;;;4.25;1.83;;;;;;;22.03;45.47;101233.06;4984729;28;20524;-63
2021/03/25 11:36:31;;;;;;;3.33;1.40;;;;;;;22.07;45.50;101226.22;4990769;28;20046;-64
2021/03/25 11:39:10;;;;;;;3.22;1.30;;;;;;;22.06;44.58;101214.41;4990615;28;20061;-64
2021/03/25 11:41:36;;;;;;;2.40;1.13;;;;;;;22.08;45.12;101238.84;4991971;28;20053;-63
2021/03/25 11:44:05;;;;;;;2.75;1.58;;;;;;;22.11;44.87;101233.00;4989101;28;20532;-62
2021/03/25 11:46:46;;;;;;;3.38;1.40;;;;;;;22.03;45.26;101235.81;4990421;28;20030;-64
2021/03/25 11:49:17;;;;;;;2.35;1.00;;;;;;;22.03;45.86;101236.66;4999805;28;20079;-64
2021/03/25 11:51:57;;;;;;;2.00;1.05;;;;;;;21.93;45.97;101236.91;5030190;28;20036;-63
2021/03/25 11:54:34;;;;;;;1.20;0.60;;;;;;;21.85;46.44;101234.25;5029904;28;20049;-64
2021/03/25 11:57:22;;;;;;;1.83;0.88;;;;;;;21.82;46.24;101231.88;5093296;28;20220;-64
2021/03/25 11:59:49;;;;;;;0.95;0.45;;;;;;;21.87;45.82;101226.72;5094540;28;20157;-63
2021/03/25 12:02:17;;;;;;;1.13;0.65;;;;;;;21.88;45.31;101230.31;5093714;28;20047;-63